Time;durP1;ratioP1;P1;durP2;ratioP2;P2;SDS_P1;SDS_P2;PMS_P1;PMS_P2;Temp;Humidity;BMP_temperature;BMP_pressure;BME280_temperature;BME280_humidity;BME280_pressure;Samples;Min_cycle;Max_cycle;Signal;HPM_P1;HPM_P2
2024/01/25 00:03:37;;;;;;;5.70;1.50;;;9.80;99.90;;;;;;10368314;28;20397;-66
2024/01/25 00:08:38;;;;;;;5.50;1.30;;;9.80;99.90;;;;;;10368734;28;20010;-67
2024/01/25 00:13:39;;;;;;;5.72;1.40;;;9.70;99.90;;;;;;10371847;28;20018;-67
2024/01/25 00:18:40;;;;;;;7.97;1.38;;;9.70;99.90;;;;;;10375352;28;20021;-67
2024/01/25 00:23:40;;;;;;;7.45;1.35;;;9.70;99.90;;;;;;10376744;28;20018;-67
2024/01/25 00:28:41;;;;;;;4.68;1.25;;;9.70;99.90;;;;;;10362535;28;20021;-66
2024/01/25 00:33:41;;;;;;;4.38;1.10;;;9.70;99.90;;;;;;10388496;28;20112;-67
2024/01/25 00:38:42;;;;;;;6.47;1.30;;;9.70;99.90;;;;;;10374192;28;20029;-67
2024/01/25 00:43:43;;;;;;;4.05;1.60;;;9.70;99.90;;;;;;10372020;28;20059;-67
2024/01/25 00:48:44;;;;;;;3.45;0.80;;;9.70;99.90;;;;;;10374501;28;20025;-66
2024/01/25 00:53:45;;;;;;;5.68;1.50;;;9.70;99.90;;;;;;10376149;28;20021;-67
2024/01/25 00:58:46;;;;;;;4.55;1.27;;;9.60;99.90;;;;;;10376490;28;20025;-68
2024/01/25 01:03:52;;;;;;;3.45;0.90;;;9.60;99.90;;;;;;10377385;28;20030;-67
2024/01/25 01:08:53;;;;;;;4.75;1.10;;;9.60;99.90;;;;;;10364096;28;20140;-67
2024/01/25 01:13:53;;;;;;;4.00;1.05;;;9.60;99.90;;;;;;10372582;28;20165;-66
2024/01/25 01:18:54;;;;;;;6.30;1.40;;;9.60;99.90;;;;;;10373312;28;20037;-67
2024/01/25 01:23:54;;;;;;;4.72;1.30;;;9.60;99.90;;;;;;10370474;28;20113;-67
2024/01/25 01:28:55;;;;;;;5.38;1.13;;;9.60;99.90;;;;;;10374881;28;20037;-67
2024/01/25 01:33:55;;;;;;;2.67;0.90;;;9.60;99.90;;;;;;10374730;28;20038;-66
2024/01/25 01:38:56;;;;;;;2.78;1.08;;;9.60;99.90;;;;;;10376757;28;20037;-67
2024/01/25 01:43:57;;;;;;;7.10;1.50;;;9.50;99.90;;;;;;10371594;28;20033;-67
2024/01/25 01:48:57;;;;;;;3.80;0.98;;;9.50;99.90;;;;;;10370767;28;20060;-67
2024/01/25 01:54:00;;;;;;;4.40;1.20;;;9.50;99.90;;;;;;10370897;28;20037;-67
2024/01/25 01:59:04;;;;;;;6.75;1.40;;;9.50;99.90;;;;;;10373368;28;20018;-66
2024/01/25 02:04:05;;;;;;;5.15;1.38;;;9.50;99.90;;;;;;10375295;28;20034;-67
2024/01/25 02:09:06;;;;;;;2.80;1.10;;;9.50;99.90;;;;;;10361364;28;20112;-67
2024/01/25 02:14:10;;;;;;;4.13;1.25;;;9.50;99.90;;;;;;10368742;28;20025;-66
2024/01/25 02:19:11;;;;;;;4.43;1.45;;;9.50;99.90;;;;;;10367857;28;20034;-67
2024/01/25 02:24:11;;;;;;;5.45;2.30;;;9.50;99.90;;;;;;10375507;28;20033;-67
2024/01/25 02:29:12;;;;;;;4.18;1.30;;;9.50;99.90;;;;;;10376778;28;20029;-67
2024/01/25 02:34:12;;;;;;;6.75;1.88;;;9.40;99.90;;;;;;10382453;28;20025;-67
2024/01/25 02:39:13;;;;;;;3.40;0.95;;;9.40;99.90;;;;;;10377258;28;20512;-66
2024/01/25 02:44:14;;;;;;;5.28;1.50;;;9.40;99.90;;;;;;10373788;28;20029;-67
2024/01/25 02:49:14;;;;;;;3.47;1.10;;;9.40;99.90;;;;;;10380749;28;20512;-67
2024/01/25 02:54:15;;;;;;;7.82;1.17;;;9.40;99.90;;;;;;10378308;28;20058;-66
2024/01/25 02:59:16;;;;;;;4.13;1.08;;;9.40;99.90;;;;;;10382782;28;20529;-67
2024/01/25 03:04:16;;;;;;;7.18;1.30;;;9.40;99.90;;;;;;10386201;28;20030;-67
2024/01/25 03:09:17;;;;;;;4.65;1.45;;;9.30;99.90;;;;;;10381117;28;20033;-67
2024/01/25 03:14:17;;;;;;;3.80;1.10;;;9.40;99.90;;;;;;10379741;28;20091;-67
2024/01/25 03:19:18;;;;;;;5.28;1.42;;;9.30;99.90;;;;;;10371052;28;20062;-67
2024/01/25 03:24:19;;;;;;;3.22;1.13;;;9.30;99.90;;;;;;10379345;28;20025;-66
2024/01/25 03:29:19;;;;;;;5.72;1.52;;;9.30;99.90;;;;;;10365265;28;20486;-65
2024/01/25 03:34:20;;;;;;;6.18;1.38;;;9.30;99.90;;;;;;10373970;28;20864;-67
2024/01/25 03:39:20;;;;;;;4.93;1.38;;;9.30;99.90;;;;;;10374491;28;20033;-67
2024/01/25 03:44:21;;;;;;;6.18;1.10;;;9.30;99.90;;;;;;10368661;28;20022;-66
2024/01/25 03:49:22;;;;;;;5.63;1.48;;;9.20;99.90;;;;;;10370128;28;20116;-67
2024/01/25 03:54:23;;;;;;;5.22;1.35;;;9.30;99.90;;;;;;10377251;28;20079;-67
2024/01/25 03:59:23;;;;;;;4.53;1.08;;;9.20;99.90;;;;;;10376317;28;20030;-67
2024/01/25 04:04:24;;;;;;;2.78;1.15;;;9.20;99.90;;;;;;10367992;28;20440;-67
2024/01/25 04:09:25;;;;;;;6.03;1.25;;;9.20;99.90;;;;;;10376856;28;20527;-67
2024/01/25 04:14:25;;;;;;;5.40;1.38;;;9.20;99.90;;;;;;10371826;28;20452;-65
2024/01/25 04:19:26;;;;;;;5.10;1.00;;;9.20;99.90;;;;;;10376375;28;20037;-67
2024/01/25 04:24:26;;;;;;;3.67;0.88;;;9.20;99.90;;;;;;10372009;28;20389;-66
2024/01/25 04:29:27;;;;;;;5.10;1.30;;;9.20;99.90;;;;;;10374616;28;20580;-66
2024/01/25 04:34:27;;;;;;;6.28;1.48;;;9.20;99.90;;;;;;10372460;28;20025;-67
2024/01/25 04:39:28;;;;;;;5.10;1.13;;;9.20;99.90;;;;;;10371950;28;20038;-67
2024/01/25 04:44:28;;;;;;;3.22;1.13;;;9.10;99.90;;;;;;10366628;28;20017;-66
2024/01/25 04:49:29;;;;;;;5.97;1.35;;;9.10;99.90;;;;;;10361774;28;20455;-66
2024/01/25 04:54:30;;;;;;;3.90;0.90;;;9.10;99.90;;;;;;10360921;28;20026;-65
2024/01/25 04:59:30;;;;;;;3.72;1.10;;;9.10;99.90;;;;;;10357134;28;20030;-66
2024/01/25 05:04:31;;;;;;;4.72;1.33;;;9.10;99.90;;;;;;10368297;28;20113;-67
2024/01/25 05:09:32;;;;;;;5.50;1.20;;;9.10;99.90;;;;;;10365079;28;20038;-66
2024/01/25 05:14:32;;;;;;;2.65;0.85;;;9.10;99.90;;;;;;10356866;28;20022;-66
2024/01/25 05:19:33;;;;;;;2.58;1.23;;;9.00;99.90;;;;;;10369560;28;20030;-66
2024/01/25 05:24:34;;;;;;;5.05;1.20;;;9.10;99.90;;;;;;10375829;28;20558;-67
2024/01/25 05:29:34;;;;;;;2.97;1.50;;;9.00;99.90;;;;;;10374029;28;20496;-66
2024/01/25 05:34:35;;;;;;;5.50;1.15;;;9.00;99.90;;;;;;10378276;28;20122;-67
2024/01/25 05:39:35;;;;;;;5.40;1.17;;;9.00;99.90;;;;;;10376697;28;20053;-67
2024/01/25 05:44:36;;;;;;;3.50;1.10;;;9.00;99.90;;;;;;10373060;28;20436;-65
2024/01/25 05:49:36;;;;;;;4.15;0.90;;;9.00;99.90;;;;;;10371063;28;20182;-67
2024/01/25 05:54:37;;;;;;;3.67;0.98;;;9.00;99.90;;;;;;10370258;28;20064;-67
2024/01/25 05:59:38;;;;;;;2.78;1.00;;;8.90;99.90;;;;;;10379930;28;20026;-66
2024/01/25 06:04:38;;;;;;;4.50;1.15;;;8.90;99.90;;;;;;10376006;28;20116;-67
2024/01/25 06:09:39;;;;;;;3.60;0.90;;;8.90;99.90;;;;;;10369764;28;20049;-67
2024/01/25 06:14:39;;;;;;;6.65;1.42;;;8.90;99.90;;;;;;10369354;28;20041;-67
2024/01/25 06:19:40;;;;;;;4.72;1.33;;;8.90;99.90;;;;;;10372945;28;20033;-67
2024/01/25 06:24:41;;;;;;;5.65;1.67;;;8.50;99.90;;;;;;10378507;28;20029;-67
2024/01/25 06:29:41;;;;;;;4.20;1.42;;;8.80;99.90;;;;;;10366897;28;20025;-67
2024/01/25 06:34:42;;;;;;;5.65;1.73;;;8.80;99.90;;;;;;10377653;28;20022;-66
2024/01/25 06:39:42;;;;;;;5.75;1.30;;;8.80;99.90;;;;;;10388671;28;20022;-67
2024/01/25 06:44:44;;;;;;;3.67;1.30;;;8.80;99.90;;;;;;10383367;28;20017;-66
2024/01/25 06:49:47;;;;;;;5.05;1.30;;;8.80;99.90;;;;;;10372255;28;20121;-67
2024/01/25 06:54:48;;;;;;;3.60;1.25;;;8.80;99.90;;;;;;10377870;28;20043;-66
2024/01/25 06:59:48;;;;;;;4.72;1.10;;;8.80;99.90;;;;;;10379496;28;20029;-67
2024/01/25 07:04:52;;;;;;;6.75;1.42;;;8.70;99.90;;;;;;10374724;28;20033;-67
2024/01/25 07:09:53;;;;;;;5.93;1.25;;;8.70;99.90;;;;;;10369870;28;20045;-67
2024/01/25 07:14:53;;;;;;;9.30;1.83;;;8.70;99.90;;;;;;10375723;28;20037;-67
2024/01/25 07:19:54;;;;;;;7.53;1.25;;;8.70;99.90;;;;;;10376474;28;20430;-66
2024/01/25 07:24:54;;;;;;;3.22;1.25;;;8.70;99.90;;;;;;10372316;28;20734;-67
2024/01/25 07:29:55;;;;;;;5.78;0.82;;;8.70;99.90;;;;;;10374640;28;20114;-67
2024/01/25 07:34:55;;;;;;;3.65;1.10;;;8.70;99.90;;;;;;10385238;28;20029;-67
2024/01/25 07:39:56;;;;;;;5.15;1.33;;;8.70;99.90;;;;;;10366514;28;20486;-67
2024/01/25 07:44:57;;;;;;;7.03;1.45;;;8.70;99.90;;;;;;10359105;28;20038;-66
2024/01/25 07:49:58;;;;;;;7.13;1.27;;;8.70;99.90;;;;;;10360729;28;20103;-67
2024/01/25 07:54:58;;;;;;;4.97;1.58;;;8.70;99.90;;;;;;10359500;28;20076;-66
2024/01/25 07:59:59;;;;;;;4.13;1.45;;;8.70;99.90;;;;;;10358357;28;20080;-67
2024/01/25 08:05:00;;;;;;;5.28;1.25;;;8.70;99.90;;;;;;10361557;28;20035;-67
2024/01/25 08:10:00;;;;;;;4.60;1.05;;;8.70;99.90;;;;;;10364370;28;20026;-66
2024/01/25 08:15:01;;;;;;;4.60;1.52;;;8.70;99.90;;;;;;10362984;28;20042;-67
2024/01/25 08:20:02;;;;;;;4.72;1.60;;;8.70;99.90;;;;;;10364924;28;20588;-66
2024/01/25 08:25:04;;;;;;;4.50;1.50;;;8.60;99.90;;;;;;10358697;28;20026;-67
2024/01/25 08:30:06;;;;;;;6.18;1.20;;;8.70;99.90;;;;;;10361623;28;20398;-67
2024/01/25 08:35:06;;;;;;;5.78;1.50;;;8.60;99.90;;;;;;10361324;28;20038;-67
2024/01/25 08:40:09;;;;;;;5.28;1.25;;;8.60;99.90;;;;;;10363735;28;20026;-67
2024/01/25 08:45:10;;;;;;;9.52;1.80;;;8.60;99.90;;;;;;10356775;28;20068;-68
2024/01/25 08:50:11;;;;;;;2.95;1.17;;;8.60;99.90;;;;;;10365648;28;20128;-67
2024/01/25 08:55:12;;;;;;;6.18;1.77;;;8.60;99.90;;;;;;10359621;28;20029;-65
2024/01/25 09:00:12;;;;;;;5.13;1.50;;;8.60;99.90;;;;;;10364068;28;20033;-67
2024/01/25 09:05:13;;;;;;;6.78;1.75;;;8.60;99.90;;;;;;10364444;28;20422;-67
2024/01/25 09:10:14;;;;;;;6.93;1.50;;;8.60;99.90;;;;;;10365755;28;20029;-67
2024/01/25 09:15:15;;;;;;;3.65;1.30;;;8.60;99.90;;;;;;10361349;28;20045;-67
2024/01/25 09:20:16;;;;;;;7.80;1.73;;;8.60;99.90;;;;;;10360378;28;20047;-66
2024/01/25 09:25:16;;;;;;;5.72;1.75;;;8.60;99.90;;;;;;10358666;28;20084;-67
2024/01/25 09:30:17;;;;;;;8.20;1.42;;;8.60;99.90;;;;;;10359954;28;20022;-69
2024/01/25 09:35:18;;;;;;;7.00;1.58;;;8.60;99.90;;;;;;10362908;28;21751;-68
2024/01/25 09:40:22;;;;;;;5.80;1.40;;;8.70;99.90;;;;;;10372143;28;20026;-68
2024/01/25 09:45:24;;;;;;;9.93;2.10;;;8.70;99.90;;;;;;10377365;28;20026;-68
2024/01/25 09:50:24;;;;;;;8.73;2.60;;;8.80;99.90;;;;;;10374698;28;20028;-68
2024/01/25 09:55:26;;;;;;;7.70;2.25;;;9.10;99.90;;;;;;10363707;28;20025;-68
2024/01/25 10:00:26;;;;;;;7.43;1.63;;;9.10;99.90;;;;;;10353338;28;20030;-67
2024/01/25 10:05:27;;;;;;;5.57;2.20;;;9.00;99.90;;;;;;10351027;28;20269;-68
2024/01/25 10:10:34;;;;;;;7.80;2.50;;;8.90;99.90;;;;;;10363000;28;20049;-68
2024/01/25 10:15:35;;;;;;;4.75;1.67;;;8.90;99.90;;;;;;10358566;28;20018;-68
2024/01/25 10:20:35;;;;;;;8.85;2.40;;;8.80;99.90;;;;;;10354169;28;20026;-68
2024/01/25 10:25:37;;;;;;;6.32;2.08;;;8.80;99.90;;;;;;10363047;28;20409;-67
2024/01/25 10:30:38;;;;;;;6.18;1.95;;;8.80;99.90;;;;;;10358756;28;20092;-68
2024/01/25 10:35:41;;;;;;;7.82;2.28;;;8.90;99.90;;;;;;10365591;28;20021;-67
2024/01/25 10:40:43;;;;;;;8.45;2.35;;;8.90;99.90;;;;;;10359218;28;20057;-68
2024/01/25 10:45:43;;;;;;;10.25;2.28;;;8.90;99.90;;;;;;10362280;28;20053;-67
2024/01/25 10:50:46;;;;;;;12.57;2.92;;;8.90;99.90;;;;;;10362829;28;20159;-67
2024/01/25 10:55:47;;;;;;;8.85;2.38;;;8.90;99.90;;;;;;10362700;28;20038;-69
2024/01/25 11:00:55;;;;;;;8.30;1.33;;;8.90;99.90;;;;;;10289680;28;2399444;-67
2024/01/25 11:06:07;;;;;;;6.35;1.70;;;9.00;99.90;;;;;;10364932;28;20402;-67
2024/01/25 11:11:10;;;;;;;11.65;2.22;;;9.00;99.90;;;;;;10368620;28;20030;-68
2024/01/25 11:16:31;;;;;;;9.90;1.90;;;9.00;99.90;;;;;;10365068;28;20623;-69
2024/01/25 11:21:46;;;;;;;8.02;2.20;;;9.00;99.90;;;;;;10361608;28;20034;-69
2024/01/25 11:26:47;;;;;;;6.45;2.30;;;9.10;99.90;;;;;;10363503;28;20152;-67
2024/01/25 11:31:50;;;;;;;7.10;2.00;;;9.10;99.90;;;;;;10357706;28;20033;-67
2024/01/25 11:36:51;;;;;;;8.57;2.10;;;9.40;99.90;;;;;;10366174;28;20092;-68
2024/01/25 11:41:52;;;;;;;7.03;1.83;;;9.20;99.90;;;;;;10365560;28;20087;-66
2024/01/25 11:46:57;;;;;;;9.32;2.10;;;9.20;99.90;;;;;;10367066;28;20037;-68
2024/01/25 11:51:58;;;;;;;10.18;2.13;;;9.50;99.90;;;;;;10367000;28;20036;-67
2024/01/25 11:57:00;;;;;;;11.35;2.53;;;9.20;99.90;;;;;;10367981;28;20057;-67
2024/01/25 12:02:01;;;;;;;8.05;2.45;;;9.20;99.90;;;;;;10359486;28;20041;-67
2024/01/25 12:07:03;;;;;;;4.60;2.15;;;9.20;99.90;;;;;;10360667;28;20725;-67
2024/01/25 12:12:05;;;;;;;11.18;2.50;;;9.20;99.90;;;;;;10367084;28;20026;-69
2024/01/25 12:17:05;;;;;;;8.20;2.22;;;9.20;99.90;;;;;;10367345;28;20029;-68
2024/01/25 12:22:06;;;;;;;11.65;2.97;;;9.30;99.90;;;;;;10361010;28;20099;-68
2024/01/25 12:27:06;;;;;;;5.68;1.85;;;9.30;99.90;;;;;;10368399;28;20036;-67
2024/01/25 12:32:07;;;;;;;9.30;2.55;;;9.30;99.90;;;;;;10370742;28;20025;-67
2024/01/25 12:37:08;;;;;;;5.13;1.95;;;9.30;99.90;;;;;;10365453;28;20065;-67
2024/01/25 12:42:08;;;;;;;8.80;2.03;;;9.30;99.90;;;;;;10362217;28;20108;-66
2024/01/25 12:47:09;;;;;;;12.25;2.30;;;9.30;99.90;;;;;;10362075;28;20034;-66
2024/01/25 12:52:12;;;;;;;13.43;3.22;;;9.40;99.90;;;;;;10366971;28;20080;-66
2024/01/25 12:57:12;;;;;;;15.65;2.88;;;9.50;99.90;;;;;;10365259;28;20036;-65
2024/01/25 13:02:13;;;;;;;16.55;3.25;;;9.50;99.90;;;;;;10363398;28;20039;-67
2024/01/25 13:07:14;;;;;;;18.90;3.28;;;9.50;99.90;;;;;;10363410;28;20026;-68
2024/01/25 13:12:15;;;;;;;20.42;3.67;;;9.50;99.90;;;;;;10363248;28;20026;-67
2024/01/25 13:17:16;;;;;;;13.18;3.80;;;9.50;99.90;;;;;;10361977;28;20041;-67
2024/01/25 13:22:21;;;;;;;23.35;4.18;;;9.40;99.90;;;;;;10361778;28;20030;-65
2024/01/25 13:27:22;;;;;;;12.90;3.80;;;9.50;99.90;;;;;;10362629;28;20537;-66
2024/01/25 13:32:23;;;;;;;15.30;3.45;;;9.40;99.90;;;;;;10368615;28;20018;-66
2024/01/25 13:37:24;;;;;;;16.08;3.28;;;9.40;99.90;;;;;;10362343;28;20521;-66
2024/01/25 13:42:24;;;;;;;12.43;3.20;;;9.40;99.90;;;;;;10360119;28;20029;-66
2024/01/25 13:47:25;;;;;;;9.52;2.90;;;9.40;99.90;;;;;;10356966;28;20018;-66
2024/01/25 13:52:26;;;;;;;10.25;2.90;;;9.40;99.90;;;;;;10364466;28;20029;-66
2024/01/25 13:57:26;;;;;;;13.43;3.40;;;9.40;99.90;;;;;;10360127;28;20029;-66
2024/01/25 14:02:27;;;;;;;10.00;2.58;;;9.40;99.90;;;;;;10352772;28;20197;-65
2024/01/25 14:07:27;;;;;;;9.73;3.35;;;9.40;99.90;;;;;;10362476;28;20407;-66
2024/01/25 14:12:28;;;;;;;10.73;2.13;;;9.40;99.90;;;;;;10358747;28;20044;-67
2024/01/25 14:17:28;;;;;;;8.55;2.47;;;9.40;99.90;;;;;;10364363;28;20033;-66
2024/01/25 14:22:30;;;;;;;7.05;2.50;;;9.40;99.90;;;;;;10368108;28;20038;-65
2024/01/25 14:27:30;;;;;;;14.20;2.90;;;9.40;99.90;;;;;;10371930;28;20040;-65
2024/01/25 14:32:31;;;;;;;15.55;2.88;;;9.40;99.90;;;;;;10381841;28;20034;-66
2024/01/25 14:37:31;;;;;;;11.32;3.13;;;9.30;99.90;;;;;;10378805;28;20045;-66
2024/01/25 14:42:32;;;;;;;13.32;2.95;;;9.30;99.90;;;;;;10368415;28;20113;-67
2024/01/25 14:47:33;;;;;;;12.63;3.15;;;9.40;99.90;;;;;;10368126;28;20025;-66
2024/01/25 14:52:33;;;;;;;11.52;2.83;;;9.30;99.90;;;;;;10375411;28;20045;-66
2024/01/25 14:57:35;;;;;;;15.13;2.75;;;9.30;99.90;;;;;;10384443;28;20022;-66
2024/01/25 15:02:35;;;;;;;10.95;2.58;;;9.40;99.90;;;;;;10375611;28;20026;-69
2024/01/25 15:07:36;;;;;;;9.25;2.75;;;9.40;99.90;;;;;;10383879;28;20022;-70
2024/01/25 15:12:36;;;;;;;11.40;2.25;;;9.40;99.90;;;;;;10376151;28;20090;-69
2024/01/25 15:17:37;;;;;;;16.20;2.63;;;9.40;99.90;;;;;;10380245;28;20033;-68
2024/01/25 15:22:38;;;;;;;14.32;2.78;;;9.40;99.90;;;;;;10380924;28;20026;-68
2024/01/25 15:27:39;;;;;;;13.35;3.38;;;9.40;99.90;;;;;;10373135;28;20025;-68
2024/01/25 15:32:42;;;;;;;7.45;2.85;;;9.40;99.90;;;;;;10379001;28;20033;-68
2024/01/25 15:37:43;;;;;;;19.85;3.22;;;9.40;99.90;;;;;;10375202;28;20021;-69
2024/01/25 15:42:44;;;;;;;8.00;2.63;;;9.40;99.90;;;;;;10379916;28;20025;-69
2024/01/25 15:47:44;;;;;;;11.13;1.92;;;9.30;99.90;;;;;;10382000;28;20026;-70
2024/01/25 15:52:46;;;;;;;9.65;2.90;;;9.60;99.90;;;;;;10381481;28;20036;-70
2024/01/25 15:57:46;;;;;;;9.90;2.58;;;10.00;99.90;;;;;;10381233;28;20084;-69
2024/01/25 16:02:47;;;;;;;12.13;2.97;;;9.90;99.90;;;;;;10372170;28;20034;-68
2024/01/25 16:07:49;;;;;;;18.15;2.55;;;9.80;99.90;;;;;;10373606;28;20017;-68
2024/01/25 16:12:49;;;;;;;8.25;2.45;;;9.80;99.90;;;;;;10373609;28;20312;-71
2024/01/25 16:17:50;;;;;;;10.00;2.25;;;9.60;99.90;;;;;;10367261;28;20096;-70
2024/01/25 16:22:51;;;;;;;14.35;2.90;;;9.60;99.90;;;;;;10375948;28;20114;-70
2024/01/25 16:27:51;;;;;;;7.78;2.53;;;9.60;99.90;;;;;;10366462;28;20033;-67
2024/01/25 16:32:52;;;;;;;9.20;1.88;;;9.50;99.90;;;;;;10371184;28;20061;-67
2024/01/25 16:37:52;;;;;;;9.38;2.58;;;9.40;99.90;;;;;;10376264;28;20497;-67
2024/01/25 16:42:54;;;;;;;10.75;3.13;;;9.40;99.90;;;;;;10376312;28;20029;-68
2024/01/25 16:47:55;;;;;;;10.85;2.50;;;9.40;99.90;;;;;;10369895;28;20523;-67
2024/01/25 16:52:56;;;;;;;14.70;3.45;;;9.40;99.90;;;;;;10376412;28;20030;-68
2024/01/25 16:57:57;;;;;;;9.40;2.72;;;9.40;99.90;;;;;;10369177;28;20040;-68
2024/01/25 17:02:58;;;;;;;16.65;2.97;;;9.40;99.90;;;;;;10369841;28;20030;-68
2024/01/25 17:07:59;;;;;;;16.25;3.72;;;9.40;99.90;;;;;;10370904;28;20069;-68
2024/01/25 17:12:59;;;;;;;11.55;3.47;;;9.40;99.90;;;;;;10365372;28;20113;-69
2024/01/25 17:18:00;;;;;;;16.38;3.15;;;9.40;99.90;;;;;;10363779;28;20045;-69
2024/01/25 17:23:01;;;;;;;10.32;2.67;;;9.40;99.90;;;;;;10362082;28;20051;-69
2024/01/25 17:28:01;;;;;;;13.38;3.00;;;9.40;99.90;;;;;;10372682;28;20018;-68
2024/01/25 17:33:02;;;;;;;13.10;4.05;;;9.40;99.90;;;;;;10370731;28;20034;-68
2024/01/25 17:38:03;;;;;;;18.50;4.28;;;9.40;99.90;;;;;;10375417;28;20056;-68
2024/01/25 17:43:03;;;;;;;12.52;3.38;;;9.40;99.90;;;;;;10363420;28;20023;-68
2024/01/25 17:48:04;;;;;;;14.50;3.85;;;9.40;99.90;;;;;;10374731;28;20039;-67
2024/01/25 17:53:05;;;;;;;14.68;4.30;;;9.40;99.90;;;;;;10366210;28;20034;-68
2024/01/25 17:58:05;;;;;;;11.98;3.47;;;9.30;99.90;;;;;;10364268;28;20409;-68
2024/01/25 18:03:06;;;;;;;10.57;3.28;;;9.30;99.90;;;;;;10382615;28;20088;-68
2024/01/25 18:08:06;;;;;;;13.18;3.78;;;9.30;99.90;;;;;;10375015;28;20038;-68
2024/01/25 18:13:07;;;;;;;13.43;3.88;;;9.30;99.90;;;;;;10367250;28;20058;-68
2024/01/25 18:18:09;;;;;;;15.38;4.32;;;9.30;99.90;;;;;;10373701;28;20024;-68
2024/01/25 18:23:09;;;;;;;16.13;4.95;;;9.30;99.90;;;;;;10380525;28;20017;-68
2024/01/25 18:28:10;;;;;;;16.77;4.22;;;9.30;99.90;;;;;;10377044;28;20034;-68
2024/01/25 18:33:12;;;;;;;15.38;5.75;;;9.20;99.90;;;;;;10384602;28;20482;-68
2024/01/25 18:38:12;;;;;;;16.63;5.20;;;9.30;99.90;;;;;;10377772;28;20045;-68
2024/01/25 18:43:13;;;;;;;16.73;5.05;;;9.30;99.90;;;;;;10377463;28;20036;-68
2024/01/25 18:48:13;;;;;;;18.70;6.32;;;9.30;99.90;;;;;;10375651;28;20021;-68
2024/01/25 18:53:14;;;;;;;16.20;5.60;;;9.30;99.90;;;;;;10379747;28;20026;-68
2024/01/25 18:58:15;;;;;;;17.63;6.40;;;9.30;99.90;;;;;;10374821;28;20038;-68
2024/01/25 19:03:16;;;;;;;21.85;5.93;;;9.30;99.90;;;;;;10374173;28;20055;-69
2024/01/25 19:08:17;;;;;;;14.88;5.82;;;9.20;99.90;;;;;;10383537;28;20029;-68
2024/01/25 19:13:17;;;;;;;26.58;6.57;;;9.20;99.90;;;;;;10384692;28;20029;-68
2024/01/25 19:18:18;;;;;;;15.57;6.10;;;9.30;99.90;;;;;;10372983;28;20048;-68
2024/01/25 19:23:19;;;;;;;20.23;6.80;;;9.20;99.90;;;;;;10357316;28;20041;-68
2024/01/25 19:28:20;;;;;;;15.95;6.05;;;9.30;99.90;;;;;;10378289;28;20113;-68
2024/01/25 19:33:20;;;;;;;16.88;6.60;;;9.20;99.90;;;;;;10382505;28;20037;-68
2024/01/25 19:38:21;;;;;;;20.83;6.53;;;9.20;99.90;;;;;;10375677;28;20038;-68
2024/01/25 19:43:21;;;;;;;19.80;7.43;;;9.20;99.90;;;;;;10372987;28;20033;-68
2024/01/25 19:48:22;;;;;;;23.13;8.45;;;9.20;99.90;;;;;;10376561;28;20113;-70
2024/01/25 19:53:24;;;;;;;23.30;7.30;;;9.20;99.90;;;;;;10365701;28;20064;-68
2024/01/25 19:58:26;;;;;;;24.27;7.63;;;9.30;99.90;;;;;;10363919;28;20121;-68
2024/01/25 20:03:26;;;;;;;23.40;7.60;;;9.30;99.90;;;;;;10374754;28;20033;-68
2024/01/25 20:08:27;;;;;;;17.60;7.18;;;9.30;99.90;;;;;;10372599;28;20134;-68
2024/01/25 20:13:28;;;;;;;19.17;7.07;;;9.30;99.90;;;;;;10369626;28;20028;-68
2024/01/25 20:18:29;;;;;;;19.17;7.15;;;9.30;99.90;;;;;;10382207;28;20021;-68
2024/01/25 20:23:29;;;;;;;18.25;6.65;;;9.30;99.90;;;;;;10377759;28;20033;-68
2024/01/25 20:28:30;;;;;;;23.40;7.75;;;9.30;99.90;;;;;;10362739;28;20437;-68
2024/01/25 20:33:30;;;;;;;15.10;7.00;;;9.30;99.90;;;;;;10357119;28;20429;-68
2024/01/25 20:38:31;;;;;;;17.90;6.85;;;9.30;99.90;;;;;;10359783;28;20417;-68
2024/01/25 20:43:31;;;;;;;17.23;7.57;;;9.30;99.90;;;;;;10364663;28;20076;-68
2024/01/25 20:48:34;;;;;;;17.55;7.40;;;9.30;99.90;;;;;;10357964;28;20026;-70
2024/01/25 20:53:37;;;;;;;16.48;7.20;;;9.20;99.90;;;;;;10359526;28;20037;-68
2024/01/25 20:58:38;;;;;;;19.27;7.65;;;9.20;99.90;;;;;;10355309;28;20034;-68
2024/01/25 21:03:39;;;;;;;18.40;7.57;;;9.30;99.90;;;;;;10364992;28;20029;-68
2024/01/25 21:08:40;;;;;;;14.88;6.68;;;9.30;99.90;;;;;;10361702;28;20022;-68
2024/01/25 21:13:46;;;;;;;14.50;6.20;;;9.30;99.90;;;;;;10360002;28;20706;-68
2024/01/25 21:18:46;;;;;;;17.80;6.47;;;9.30;99.90;;;;;;10354260;28;20052;-68
2024/01/25 21:23:47;;;;;;;16.27;7.50;;;9.30;99.90;;;;;;10360093;28;20065;-68
2024/01/25 21:28:47;;;;;;;17.00;7.18;;;9.30;99.90;;;;;;10352157;28;20033;-67
2024/01/25 21:33:49;;;;;;;12.98;6.25;;;9.30;99.90;;;;;;10360658;28;20690;-68
2024/01/25 21:38:50;;;;;;;20.83;7.30;;;9.30;99.90;;;;;;10366059;28;20026;-68
2024/01/25 21:43:50;;;;;;;18.23;6.68;;;9.30;99.90;;;;;;10369796;28;20049;-68
2024/01/25 21:48:51;;;;;;;15.40;6.35;;;9.30;99.90;;;;;;10371913;28;20109;-68
2024/01/25 21:53:51;;;;;;;16.65;6.35;;;9.30;99.90;;;;;;10367430;28;20072;-68
2024/01/25 21:58:52;;;;;;;13.10;6.40;;;9.30;99.90;;;;;;10365313;28;20113;-68
2024/01/25 22:03:53;;;;;;;15.75;6.72;;;9.30;99.90;;;;;;10368741;28;20041;-67
2024/01/25 22:08:54;;;;;;;13.38;5.90;;;9.30;99.90;;;;;;10370170;28;20389;-68
2024/01/25 22:13:55;;;;;;;12.43;6.35;;;9.30;99.90;;;;;;10359988;28;20034;-68
2024/01/25 22:18:55;;;;;;;11.85;5.38;;;9.30;99.90;;;;;;10363961;28;20692;-68
2024/01/25 22:23:56;;;;;;;17.25;6.25;;;9.30;99.90;;;;;;10368586;28;20033;-68
2024/01/25 22:28:57;;;;;;;14.98;6.03;;;9.30;99.90;;;;;;10369788;28;20022;-67
2024/01/25 22:33:57;;;;;;;17.00;6.28;;;9.30;99.90;;;;;;10365319;28;20034;-68
2024/01/25 22:38:58;;;;;;;13.07;5.80;;;9.30;99.90;;;;;;10367084;28;20034;-68
2024/01/25 22:43:58;;;;;;;13.45;6.20;;;9.30;99.90;;;;;;10369862;28;20022;-68
2024/01/25 22:48:59;;;;;;;12.32;6.10;;;9.30;99.90;;;;;;10368894;28;20037;-68
2024/01/25 22:53:59;;;;;;;17.05;6.35;;;9.30;99.90;;;;;;10370911;28;20145;-67
2024/01/25 22:59:00;;;;;;;13.07;6.47;;;9.40;99.90;;;;;;10369335;28;20626;-67
2024/01/25 23:04:01;;;;;;;12.10;5.97;;;9.40;99.90;;;;;;10364781;28;20030;-67
2024/01/25 23:09:01;;;;;;;13.55;5.95;;;9.40;99.90;;;;;;10375363;28;20608;-67
2024/01/25 23:14:02;;;;;;;12.95;6.22;;;9.40;99.90;;;;;;10371722;28;20589;-68
2024/01/25 23:19:02;;;;;;;18.45;7.13;;;9.40;99.90;;;;;;10370175;28;20030;-68
2024/01/25 23:24:03;;;;;;;14.00;5.95;;;9.40;99.90;;;;;;10375218;28;20087;-67
2024/01/25 23:29:04;;;;;;;14.88;6.00;;;9.40;99.90;;;;;;10372047;28;20033;-68
2024/01/25 23:34:05;;;;;;;14.75;6.25;;;9.40;99.90;;;;;;10371734;28;20022;-67
2024/01/25 23:39:06;;;;;;;13.98;6.70;;;9.40;99.90;;;;;;10376348;28;20026;-68
2024/01/25 23:44:07;;;;;;;12.88;5.63;;;9.40;99.90;;;;;;10365372;28;20785;-67
2024/01/25 23:49:09;;;;;;;16.02;6.93;;;9.40;99.90;;;;;;10372408;28;20032;-68
2024/01/25 23:54:10;;;;;;;14.13;5.90;;;9.40;99.90;;;;;;10370152;28;20030;-68
2024/01/25 23:59:12;;;;;;;17.92;6.70;;;9.40;99.90;;;;;;10376526;28;20092;-67
